sensor_id;sensor_type;location;lat;lon;timestamp;pressure;altitude;pressure_sealevel;temperature;humidity
11124;BME280;5616;42.692;23.312;2023-04-09T00:01:02;95312.63;;;7.80;94.51
11124;BME280;5616;42.692;23.312;2023-04-09T00:03:29;95314.88;;;7.83;94.52
11124;BME280;5616;42.692;23.312;2023-04-09T00:05:57;95327.22;;;7.63;95.48
11124;BME280;5616;42.692;23.312;2023-04-09T00:08:24;95321.47;;;7.85;94.72
11124;BME280;5616;42.692;23.312;2023-04-09T00:10:51;95327.09;;;7.89;94.52
11124;BME280;5616;42.692;23.312;2023-04-09T00:13:18;95328.88;;;7.88;94.30
11124;BME280;5616;42.692;23.312;2023-04-09T00:15:45;95333.22;;;7.96;93.50
11124;BME280;5616;42.692;23.312;2023-04-09T00:18:12;95327.75;;;7.99;92.97
11124;BME280;5616;42.692;23.312;2023-04-09T00:20:39;95331.28;;;8.06;92.91
11124;BME280;5616;42.692;23.312;2023-04-09T00:23:07;95323.13;;;8.11;92.39
11124;BME280;5616;42.692;23.312;2023-04-09T00:25:34;95330.84;;;8.11;91.79
11124;BME280;5616;42.692;23.312;2023-04-09T00:28:02;95336.31;;;8.16;91.54
11124;BME280;5616;42.692;23.312;2023-04-09T00:30:29;95337.56;;;8.20;92.12
11124;BME280;5616;42.692;23.312;2023-04-09T00:32:56;95329.38;;;8.08;91.82
11124;BME280;5616;42.692;23.312;2023-04-09T00:35:23;95338.53;;;7.94;92.60
11124;BME280;5616;42.692;23.312;2023-04-09T00:37:50;95348.50;;;8.06;92.34
11124;BME280;5616;42.692;23.312;2023-04-09T00:40:19;95336.09;;;8.01;93.54
11124;BME280;5616;42.692;23.312;2023-04-09T00:42:45;95340.94;;;8.12;93.32
11124;BME280;5616;42.692;23.312;2023-04-09T00:45:13;95342.56;;;8.13;92.70
11124;BME280;5616;42.692;23.312;2023-04-09T00:47:40;95336.78;;;8.11;91.96
11124;BME280;5616;42.692;23.312;2023-04-09T00:50:10;95328.41;;;8.17;92.09
11124;BME280;5616;42.692;23.312;2023-04-09T00:52:36;95329.69;;;8.05;92.37
11124;BME280;5616;42.692;23.312;2023-04-09T00:55:04;95331.63;;;8.19;92.04
11124;BME280;5616;42.692;23.312;2023-04-09T00:57:33;95329.41;;;8.16;92.25
11124;BME280;5616;42.692;23.312;2023-04-09T01:00:00;95333.09;;;8.14;92.83
11124;BME280;5616;42.692;23.312;2023-04-09T01:02:29;95339.69;;;8.16;91.79
11124;BME280;5616;42.692;23.312;2023-04-09T01:04:56;95332.91;;;8.15;92.34
11124;BME280;5616;42.692;23.312;2023-04-09T01:07:33;95336.78;;;8.19;92.67
11124;BME280;5616;42.692;23.312;2023-04-09T01:10:10;95336.13;;;8.25;91.48
11124;BME280;5616;42.692;23.312;2023-04-09T01:12:49;95333.88;;;8.22;92.56
11124;BME280;5616;42.692;23.312;2023-04-09T01:15:20;95339.50;;;8.18;91.79
11124;BME280;5616;42.692;23.312;2023-04-09T01:17:52;95343.19;;;8.07;91.96
11124;BME280;5616;42.692;23.312;2023-04-09T01:20:27;95334.69;;;8.15;91.74
11124;BME280;5616;42.692;23.312;2023-04-09T01:23:00;95345.16;;;8.21;92.48
11124;BME280;5616;42.692;23.312;2023-04-09T01:25:42;95338.88;;;8.24;92.32
11124;BME280;5616;42.692;23.312;2023-04-09T01:28:16;95344.53;;;8.27;93.34
11124;BME280;5616;42.692;23.312;2023-04-09T01:30:47;95345.03;;;8.31;92.06
11124;BME280;5616;42.692;23.312;2023-04-09T01:33:16;95347.09;;;8.27;92.16
11124;BME280;5616;42.692;23.312;2023-04-09T01:35:45;95336.00;;;8.19;93.22
11124;BME280;5616;42.692;23.312;2023-04-09T01:38:13;95344.53;;;8.27;92.20
11124;BME280;5616;42.692;23.312;2023-04-09T01:40:42;95349.00;;;8.25;90.71
11124;BME280;5616;42.692;23.312;2023-04-09T01:43:10;95343.84;;;8.25;90.52
11124;BME280;5616;42.692;23.312;2023-04-09T01:45:39;95345.63;;;8.25;90.75
11124;BME280;5616;42.692;23.312;2023-04-09T01:48:08;95342.28;;;8.32;91.33
11124;BME280;5616;42.692;23.312;2023-04-09T01:53:24;95347.56;;;8.23;92.49
11124;BME280;5616;42.692;23.312;2023-04-09T01:55:53;95342.44;;;8.31;92.01
11124;BME280;5616;42.692;23.312;2023-04-09T01:58:20;95352.25;;;8.35;91.56
11124;BME280;5616;42.692;23.312;2023-04-09T02:00:49;95336.81;;;8.35;91.40
11124;BME280;5616;42.692;23.312;2023-04-09T02:03:20;95343.03;;;8.25;90.86
11124;BME280;5616;42.692;23.312;2023-04-09T02:05:53;95331.97;;;8.24;90.44
11124;BME280;5616;42.692;23.312;2023-04-09T02:08:22;95341.75;;;8.13;91.81
11124;BME280;5616;42.692;23.312;2023-04-09T02:10:53;95338.38;;;8.20;92.00
11124;BME280;5616;42.692;23.312;2023-04-09T02:13:22;95334.84;;;8.13;92.09
11124;BME280;5616;42.692;23.312;2023-04-09T02:15:55;95348.69;;;8.20;92.19
11124;BME280;5616;42.692;23.312;2023-04-09T02:18:24;95347.88;;;8.20;91.81
11124;BME280;5616;42.692;23.312;2023-04-09T02:20:53;95345.44;;;8.02;92.68
11124;BME280;5616;42.692;23.312;2023-04-09T02:23:20;95340.44;;;8.09;92.28
11124;BME280;5616;42.692;23.312;2023-04-09T02:25:47;95339.38;;;8.11;91.85
11124;BME280;5616;42.692;23.312;2023-04-09T02:28:14;95334.97;;;7.95;92.00
11124;BME280;5616;42.692;23.312;2023-04-09T02:30:41;95336.91;;;7.93;91.37
11124;BME280;5616;42.692;23.312;2023-04-09T02:33:09;95341.25;;;8.01;92.68
11124;BME280;5616;42.692;23.312;2023-04-09T02:35:36;95344.50;;;8.11;91.51
11124;BME280;5616;42.692;23.312;2023-04-09T02:38:03;95340.13;;;8.12;91.39
11124;BME280;5616;42.692;23.312;2023-04-09T02:40:30;95336.63;;;8.13;92.10
11124;BME280;5616;42.692;23.312;2023-04-09T02:42:57;95334.53;;;8.08;91.97
11124;BME280;5616;42.692;23.312;2023-04-09T02:45:24;95335.16;;;8.10;91.36
11124;BME280;5616;42.692;23.312;2023-04-09T02:47:51;95339.34;;;8.03;91.36
11124;BME280;5616;42.692;23.312;2023-04-09T02:50:20;95338.03;;;7.99;92.12
11124;BME280;5616;42.692;23.312;2023-04-09T02:52:50;95336.56;;;7.88;92.54
11124;BME280;5616;42.692;23.312;2023-04-09T02:55:18;95332.41;;;7.79;92.63
11124;BME280;5616;42.692;23.312;2023-04-09T02:57:45;95330.78;;;7.78;92.55
11124;BME280;5616;42.692;23.312;2023-04-09T03:00:13;95334.97;;;7.79;93.57
11124;BME280;5616;42.692;23.312;2023-04-09T03:02:39;95332.22;;;7.81;93.12
11124;BME280;5616;42.692;23.312;2023-04-09T03:05:07;95335.72;;;7.72;92.24
11124;BME280;5616;42.692;23.312;2023-04-09T03:07:35;95330.28;;;7.75;92.23
11124;BME280;5616;42.692;23.312;2023-04-09T03:10:02;95327.72;;;7.83;92.55
11124;BME280;5616;42.692;23.312;2023-04-09T03:12:29;95330.47;;;7.81;92.63
11124;BME280;5616;42.692;23.312;2023-04-09T03:14:55;95330.78;;;7.86;91.89
11124;BME280;5616;42.692;23.312;2023-04-09T03:17:22;95326.44;;;7.71;92.44
11124;BME280;5616;42.692;23.312;2023-04-09T03:19:51;95330.25;;;7.67;91.58
11124;BME280;5616;42.692;23.312;2023-04-09T03:22:19;95333.94;;;7.64;92.31
11124;BME280;5616;42.692;23.312;2023-04-09T03:24:51;95334.94;;;7.71;92.47
11124;BME280;5616;42.692;23.312;2023-04-09T03:27:18;95331.56;;;7.71;92.44
11124;BME280;5616;42.692;23.312;2023-04-09T03:29:54;95332.50;;;7.70;92.14
11124;BME280;5616;42.692;23.312;2023-04-09T03:32:23;95334.13;;;7.71;91.87
11124;BME280;5616;42.692;23.312;2023-04-09T03:34:50;95330.25;;;7.67;91.74
11124;BME280;5616;42.692;23.312;2023-04-09T03:37:19;95335.56;;;7.65;92.06
11124;BME280;5616;42.692;23.312;2023-04-09T03:39:46;95339.41;;;7.69;91.75
11124;BME280;5616;42.692;23.312;2023-04-09T03:42:14;95332.81;;;7.67;91.82
11124;BME280;5616;42.692;23.312;2023-04-09T03:44:45;95329.28;;;7.60;92.39
11124;BME280;5616;42.692;23.312;2023-04-09T03:47:17;95335.56;;;7.65;92.34
11124;BME280;5616;42.692;23.312;2023-04-09T03:49:44;95333.94;;;7.64;92.78
11124;BME280;5616;42.692;23.312;2023-04-09T03:52:23;95334.59;;;7.58;92.29
11124;BME280;5616;42.692;23.312;2023-04-09T03:54:58;95339.34;;;8.03;97.29
11124;BME280;5616;42.692;23.312;2023-04-09T03:57:29;95338.25;;;8.70;94.39
11124;BME280;5616;42.692;23.312;2023-04-09T03:59:56;95340.06;;;8.45;90.75
11124;BME280;5616;42.692;23.312;2023-04-09T04:02:24;95345.66;;;8.33;89.04
11124;BME280;5616;42.692;23.312;2023-04-09T04:05:02;95345.78;;;8.15;89.18
11124;BME280;5616;42.692;23.312;2023-04-09T04:07:34;95344.31;;;8.05;89.21
11124;BME280;5616;42.692;23.312;2023-04-09T04:10:11;95349.63;;;7.95;90.18
11124;BME280;5616;42.692;23.312;2023-04-09T04:12:44;95347.50;;;7.90;89.79
11124;BME280;5616;42.692;23.312;2023-04-09T04:15:38;95352.63;;;7.74;90.68
11124;BME280;5616;42.692;23.312;2023-04-09T04:18:06;95347.97;;;7.78;90.87
11124;BME280;5616;42.692;23.312;2023-04-09T04:20:41;95343.28;;;7.73;91.15
11124;BME280;5616;42.692;23.312;2023-04-09T04:23:11;95351.47;;;7.69;92.03
11124;BME280;5616;42.692;23.312;2023-04-09T04:25:51;95346.97;;;7.71;91.52
11124;BME280;5616;42.692;23.312;2023-04-09T04:28:25;95361.53;;;7.54;92.86
11124;BME280;5616;42.692;23.312;2023-04-09T04:30:53;95343.75;;;7.61;91.74
11124;BME280;5616;42.692;23.312;2023-04-09T04:33:20;95354.50;;;7.64;92.16
11124;BME280;5616;42.692;23.312;2023-04-09T04:35:51;95356.94;;;7.66;91.73
11124;BME280;5616;42.692;23.312;2023-04-09T04:38:40;95356.59;;;7.61;91.94
11124;BME280;5616;42.692;23.312;2023-04-09T04:41:14;95350.34;;;7.63;92.14
11124;BME280;5616;42.692;23.312;2023-04-09T04:43:48;95351.94;;;7.64;92.18
11124;BME280;5616;42.692;23.312;2023-04-09T04:46:19;95355.84;;;7.76;92.43
11124;BME280;5616;42.692;23.312;2023-04-09T04:48:46;95355.97;;;7.75;91.11
11124;BME280;5616;42.692;23.312;2023-04-09T04:51:13;95359.03;;;7.70;91.54
11124;BME280;5616;42.692;23.312;2023-04-09T04:53:45;95354.16;;;7.59;91.92
11124;BME280;5616;42.692;23.312;2023-04-09T04:56:13;95359.94;;;7.53;93.12
11124;BME280;5616;42.692;23.312;2023-04-09T04:59:00;95365.31;;;7.76;92.47
11124;BME280;5616;42.692;23.312;2023-04-09T05:01:33;95360.53;;;7.89;92.00
11124;BME280;5616;42.692;23.312;2023-04-09T05:04:01;95355.38;;;7.89;91.54
11124;BME280;5616;42.692;23.312;2023-04-09T05:06:33;95355.75;;;8.10;90.25
11124;BME280;5616;42.692;23.312;2023-04-09T05:09:04;95355.59;;;8.20;89.83
11124;BME280;5616;42.692;23.312;2023-04-09T05:11:42;95366.72;;;8.28;89.21
11124;BME280;5616;42.692;23.312;2023-04-09T05:14:15;95365.44;;;8.40;89.20
11124;BME280;5616;42.692;23.312;2023-04-09T05:16:42;95361.09;;;8.49;88.29
11124;BME280;5616;42.692;23.312;2023-04-09T05:19:09;95371.22;;;8.67;88.43
11124;BME280;5616;42.692;23.312;2023-04-09T05:21:36;95365.28;;;8.82;87.31
11124;BME280;5616;42.692;23.312;2023-04-09T05:24:04;95365.22;;;8.98;86.88
11124;BME280;5616;42.692;23.312;2023-04-09T05:26:32;95367.03;;;9.06;87.53
11124;BME280;5616;42.692;23.312;2023-04-09T05:29:01;95364.59;;;9.04;85.96
11124;BME280;5616;42.692;23.312;2023-04-09T05:31:29;95362.16;;;9.11;86.16
11124;BME280;5616;42.692;23.312;2023-04-09T05:34:04;95367.97;;;9.05;86.10
11124;BME280;5616;42.692;23.312;2023-04-09T05:36:43;95372.94;;;9.06;84.88
11124;BME280;5616;42.692;23.312;2023-04-09T05:39:10;95366.72;;;8.93;85.85
11124;BME280;5616;42.692;23.312;2023-04-09T05:41:37;95369.31;;;8.85;86.49
11124;BME280;5616;42.692;23.312;2023-04-09T05:44:28;95369.63;;;8.66;87.25
11124;BME280;5616;42.692;23.312;2023-04-09T05:47:07;95368.31;;;8.86;86.01
11124;BME280;5616;42.692;23.312;2023-04-09T05:49:46;95370.25;;;8.92;86.80
11124;BME280;5616;42.692;23.312;2023-04-09T05:52:15;95375.72;;;8.89;86.46
11124;BME280;5616;42.692;23.312;2023-04-09T05:54:43;95376.84;;;9.02;84.77
11124;BME280;5616;42.692;23.312;2023-04-09T05:57:10;95369.69;;;9.29;83.78
11124;BME280;5616;42.692;23.312;2023-04-09T05:59:41;95374.81;;;9.37;83.85
11124;BME280;5616;42.692;23.312;2023-04-09T06:02:09;95370.16;;;9.32;83.98
11124;BME280;5616;42.692;23.312;2023-04-09T06:04:36;95369.78;;;9.43;83.08
11124;BME280;5616;42.692;23.312;2023-04-09T06:07:03;95366.66;;;9.64;82.35
11124;BME280;5616;42.692;23.312;2023-04-09T06:09:30;95378.31;;;9.82;80.72
11124;BME280;5616;42.692;23.312;2023-04-09T06:11:56;95365.91;;;9.86;81.38
11124;BME280;5616;42.692;23.312;2023-04-09T06:14:23;95369.78;;;10.21;81.34
11124;BME280;5616;42.692;23.312;2023-04-09T06:16:50;95368.06;;;10.13;79.26
11124;BME280;5616;42.692;23.312;2023-04-09T06:19:18;95377.19;;;10.24;79.73
11124;BME280;5616;42.692;23.312;2023-04-09T06:21:45;95374.06;;;10.51;78.32
11124;BME280;5616;42.692;23.312;2023-04-09T06:24:12;95372.50;;;10.65;77.29
11124;BME280;5616;42.692;23.312;2023-04-09T06:26:39;95376.66;;;10.88;76.79
11124;BME280;5616;42.692;23.312;2023-04-09T06:29:05;95376.16;;;10.93;75.61
11124;BME280;5616;42.692;23.312;2023-04-09T06:31:32;95376.91;;;11.16;74.45
11124;BME280;5616;42.692;23.312;2023-04-09T06:33:59;95379.06;;;11.27;73.41
11124;BME280;5616;42.692;23.312;2023-04-09T06:36:27;95373.16;;;11.33;73.67
11124;BME280;5616;42.692;23.312;2023-04-09T06:38:54;95370.50;;;11.56;73.25
11124;BME280;5616;42.692;23.312;2023-04-09T06:41:22;95374.50;;;11.73;73.83
11124;BME280;5616;42.692;23.312;2023-04-09T06:43:49;95378.41;;;11.98;72.49
11124;BME280;5616;42.692;23.312;2023-04-09T06:46:16;95382.84;;;12.04;71.13
11124;BME280;5616;42.692;23.312;2023-04-09T06:48:44;95385.03;;;11.86;70.48
11124;BME280;5616;42.692;23.312;2023-04-09T06:51:11;95363.81;;;11.47;71.69
11124;BME280;5616;42.692;23.312;2023-04-09T06:53:40;95389.59;;;11.70;71.31
11124;BME280;5616;42.692;23.312;2023-04-09T06:56:07;95376.09;;;11.59;69.88
11124;BME280;5616;42.692;23.312;2023-04-09T06:58:35;95388.56;;;11.12;72.95
11124;BME280;5616;42.692;23.312;2023-04-09T07:01:01;95394.72;;;11.26;72.33
11124;BME280;5616;42.692;23.312;2023-04-09T07:03:28;95388.66;;;11.19;72.09
11124;BME280;5616;42.692;23.312;2023-04-09T07:05:56;95388.66;;;11.33;71.95
11124;BME280;5616;42.692;23.312;2023-04-09T07:08:23;95389.09;;;10.93;72.80
11124;BME280;5616;42.692;23.312;2023-04-09T07:10:51;95386.94;;;10.96;74.32
11124;BME280;5616;42.692;23.312;2023-04-09T07:13:18;95385.88;;;11.05;72.21
11124;BME280;5616;42.692;23.312;2023-04-09T07:15:45;95392.50;;;11.23;71.75
11124;BME280;5616;42.692;23.312;2023-04-09T07:18:12;95392.22;;;11.18;71.47
11124;BME280;5616;42.692;23.312;2023-04-09T07:20:39;95385.28;;;11.03;72.26
11124;BME280;5616;42.692;23.312;2023-04-09T07:23:06;95393.09;;;11.10;72.62
11124;BME280;5616;42.692;23.312;2023-04-09T07:25:32;95396.16;;;11.14;70.10
11124;BME280;5616;42.692;23.312;2023-04-09T07:28:01;95392.78;;;10.90;71.28
11124;BME280;5616;42.692;23.312;2023-04-09T07:30:28;95388.28;;;11.07;70.61
11124;BME280;5616;42.692;23.312;2023-04-09T07:32:55;95389.81;;;11.31;72.21
11124;BME280;5616;42.692;23.312;2023-04-09T07:35:22;95389.75;;;11.24;71.17
11124;BME280;5616;42.692;23.312;2023-04-09T07:37:48;95389.47;;;11.34;70.66
11124;BME280;5616;42.692;23.312;2023-04-09T07:40:15;95389.66;;;11.47;69.56
11124;BME280;5616;42.692;23.312;2023-04-09T07:42:42;95392.53;;;11.66;69.57
11124;BME280;5616;42.692;23.312;2023-04-09T07:45:10;95392.63;;;11.73;67.63
11124;BME280;5616;42.692;23.312;2023-04-09T07:47:38;95402.06;;;11.95;65.53
11124;BME280;5616;42.692;23.312;2023-04-09T07:50:07;95398.66;;;11.95;64.22
11124;BME280;5616;42.692;23.312;2023-04-09T07:52:34;95401.88;;;11.97;63.64
11124;BME280;5616;42.692;23.312;2023-04-09T07:55:00;95403.69;;;12.17;63.51
11124;BME280;5616;42.692;23.312;2023-04-09T07:57:29;95404.75;;;12.59;63.08
11124;BME280;5616;42.692;23.312;2023-04-09T07:59:56;95409.84;;;12.73;61.27
11124;BME280;5616;42.692;23.312;2023-04-09T08:02:24;95405.72;;;12.58;60.58
11124;BME280;5616;42.692;23.312;2023-04-09T08:04:51;95408.97;;;12.24;62.24
11124;BME280;5616;42.692;23.312;2023-04-09T08:07:18;95411.03;;;12.14;61.71
11124;BME280;5616;42.692;23.312;2023-04-09T08:09:45;95412.47;;;12.02;62.92
11124;BME280;5616;42.692;23.312;2023-04-09T08:12:11;95411.16;;;11.91;64.70
11124;BME280;5616;42.692;23.312;2023-04-09T08:14:38;95417.13;;;11.48;65.63
11124;BME280;5616;42.692;23.312;2023-04-09T08:17:05;95416.94;;;11.35;67.03
11124;BME280;5616;42.692;23.312;2023-04-09T08:19:33;95418.34;;;11.23;66.18
11124;BME280;5616;42.692;23.312;2023-04-09T08:22:00;95414.47;;;11.04;67.95
11124;BME280;5616;42.692;23.312;2023-04-09T08:24:27;95422.34;;;11.25;67.85
11124;BME280;5616;42.692;23.312;2023-04-09T08:26:54;95412.88;;;11.84;65.14
11124;BME280;5616;42.692;23.312;2023-04-09T08:29:22;95414.72;;;12.05;64.49
11124;BME280;5616;42.692;23.312;2023-04-09T08:31:49;95417.44;;;12.18;64.67
11124;BME280;5616;42.692;23.312;2023-04-09T08:34:16;95424.66;;;12.22;63.54
11124;BME280;5616;42.692;23.312;2023-04-09T08:36:46;95417.19;;;12.70;62.59
11124;BME280;5616;42.692;23.312;2023-04-09T08:39:14;95414.81;;;12.96;61.16
11124;BME280;5616;42.692;23.312;2023-04-09T08:41:44;95423.84;;;13.21;60.54
11124;BME280;5616;42.692;23.312;2023-04-09T08:44:12;95416.66;;;13.23;60.94
11124;BME280;5616;42.692;23.312;2023-04-09T08:46:38;95417.19;;;13.40;60.60
11124;BME280;5616;42.692;23.312;2023-04-09T08:49:07;95402.47;;;13.81;59.37
11124;BME280;5616;42.692;23.312;2023-04-09T08:51:34;95400.13;;;14.40;58.49
11124;BME280;5616;42.692;23.312;2023-04-09T08:54:02;95402.16;;;14.58;58.78
11124;BME280;5616;42.692;23.312;2023-04-09T08:56:29;95401.00;;;15.26;56.25
11124;BME280;5616;42.692;23.312;2023-04-09T08:58:56;95402.16;;;15.69;53.97
11124;BME280;5616;42.692;23.312;2023-04-09T09:01:24;95400.47;;;15.95;52.33
11124;BME280;5616;42.692;23.312;2023-04-09T09:03:56;95399.00;;;15.02;54.56
11124;BME280;5616;42.692;23.312;2023-04-09T09:06:24;95404.81;;;15.30;53.76
11124;BME280;5616;42.692;23.312;2023-04-09T09:08:59;95396.16;;;15.62;54.92
11124;BME280;5616;42.692;23.312;2023-04-09T09:11:27;95389.06;;;15.96;53.26
11124;BME280;5616;42.692;23.312;2023-04-09T09:13:59;95391.53;;;15.77;54.01
11124;BME280;5616;42.692;23.312;2023-04-09T09:16:26;95392.78;;;16.19;51.82
11124;BME280;5616;42.692;23.312;2023-04-09T09:18:53;95393.16;;;15.65;55.17
11124;BME280;5616;42.692;23.312;2023-04-09T09:21:21;95392.56;;;15.37;52.78
11124;BME280;5616;42.692;23.312;2023-04-09T09:23:48;95387.19;;;14.99;53.91
11124;BME280;5616;42.692;23.312;2023-04-09T09:26:17;95384.94;;;14.37;55.78
11124;BME280;5616;42.692;23.312;2023-04-09T09:28:47;95389.13;;;13.91;57.54
11124;BME280;5616;42.692;23.312;2023-04-09T09:31:15;95387.16;;;13.99;57.23
11124;BME280;5616;42.692;23.312;2023-04-09T09:33:42;95386.13;;;13.94;57.96
11124;BME280;5616;42.692;23.312;2023-04-09T09:36:09;95374.59;;;14.03;59.46
11124;BME280;5616;42.692;23.312;2023-04-09T09:38:51;95383.84;;;13.71;59.99
11124;BME280;5616;42.692;23.312;2023-04-09T09:41:18;95379.47;;;13.78;58.37
11124;BME280;5616;42.692;23.312;2023-04-09T09:43:47;95374.59;;;13.56;59.73
11124;BME280;5616;42.692;23.312;2023-04-09T09:46:15;95378.13;;;13.48;59.27
11124;BME280;5616;42.692;23.312;2023-04-09T09:48:43;95365.53;;;13.11;60.18
11124;BME280;5616;42.692;23.312;2023-04-09T09:51:12;95367.19;;;13.25;60.83
11124;BME280;5616;42.692;23.312;2023-04-09T09:53:42;95361.41;;;13.51;59.86
11124;BME280;5616;42.692;23.312;2023-04-09T09:56:13;95364.72;;;13.79;59.55
11124;BME280;5616;42.692;23.312;2023-04-09T09:58:45;95360.34;;;13.86;59.36
11124;BME280;5616;42.692;23.312;2023-04-09T10:01:16;95357.97;;;13.91;59.83
11124;BME280;5616;42.692;23.312;2023-04-09T10:03:46;95364.78;;;13.92;58.49
11124;BME280;5616;42.692;23.312;2023-04-09T10:06:15;95355.97;;;13.45;57.51
11124;BME280;5616;42.692;23.312;2023-04-09T10:08:43;95355.81;;;13.54;57.61
11124;BME280;5616;42.692;23.312;2023-04-09T10:11:11;95320.63;;;13.38;59.52
11124;BME280;5616;42.692;23.312;2023-04-09T10:13:40;95360.44;;;13.65;57.14
11124;BME280;5616;42.692;23.312;2023-04-09T10:16:09;95351.78;;;13.44;57.70
11124;BME280;5616;42.692;23.312;2023-04-09T10:18:39;95350.97;;;12.88;61.08
11124;BME280;5616;42.692;23.312;2023-04-09T10:21:13;95338.75;;;13.04;58.55
11124;BME280;5616;42.692;23.312;2023-04-09T10:23:44;95330.56;;;13.34;58.18
11124;BME280;5616;42.692;23.312;2023-04-09T10:26:13;95344.25;;;13.56;59.90
11124;BME280;5616;42.692;23.312;2023-04-09T10:28:42;95349.56;;;13.82;57.16
11124;BME280;5616;42.692;23.312;2023-04-09T10:31:08;95341.09;;;14.21;55.46
11124;BME280;5616;42.692;23.312;2023-04-09T10:33:36;95336.16;;;14.39;54.27
11124;BME280;5616;42.692;23.312;2023-04-09T10:36:09;95336.63;;;14.02;55.72
11124;BME280;5616;42.692;23.312;2023-04-09T10:38:37;95328.06;;;14.15;55.27
11124;BME280;5616;42.692;23.312;2023-04-09T10:41:13;95328.03;;;14.01;55.70
11124;BME280;5616;42.692;23.312;2023-04-09T10:43:41;95320.06;;;14.03;55.74
11124;BME280;5616;42.692;23.312;2023-04-09T10:46:26;95328.31;;;14.20;54.78
11124;BME280;5616;42.692;23.312;2023-04-09T10:49:10;95324.38;;;14.43;54.86
11124;BME280;5616;42.692;23.312;2023-04-09T10:51:39;95306.41;;;14.48;56.59
11124;BME280;5616;42.692;23.312;2023-04-09T10:54:40;95313.00;;;14.77;57.16
11124;BME280;5616;42.692;23.312;2023-04-09T10:57:18;95314.00;;;14.96;58.72
11124;BME280;5616;42.692;23.312;2023-04-09T10:59:47;95308.81;;;14.96;53.85
11124;BME280;5616;42.692;23.312;2023-04-09T11:05:21;95309.56;;;15.16;52.22
11124;BME280;5616;42.692;23.312;2023-04-09T11:07:52;95297.72;;;15.20;51.24
11124;BME280;5616;42.692;23.312;2023-04-09T11:10:20;95293.38;;;15.07;51.64
11124;BME280;5616;42.692;23.312;2023-04-09T11:12:47;95286.16;;;15.16;51.64
11124;BME280;5616;42.692;23.312;2023-04-09T11:15:15;95295.97;;;15.14;52.34
11124;BME280;5616;42.692;23.312;2023-04-09T11:17:42;95298.97;;;15.11;51.71
11124;BME280;5616;42.692;23.312;2023-04-09T11:20:09;95292.19;;;14.97;52.29
11124;BME280;5616;42.692;23.312;2023-04-09T11:22:37;95295.38;;;14.92;50.77
11124;BME280;5616;42.692;23.312;2023-04-09T11:25:05;95294.19;;;14.75;51.86
11124;BME280;5616;42.692;23.312;2023-04-09T11:27:36;95301.78;;;14.83;51.60
11124;BME280;5616;42.692;23.312;2023-04-09T11:30:04;95287.41;;;14.61;54.52
11124;BME280;5616;42.692;23.312;2023-04-09T11:32:32;95288.59;;;14.65;57.12
11124;BME280;5616;42.692;23.312;2023-04-09T11:34:59;95291.19;;;14.65;56.26
11124;BME280;5616;42.692;23.312;2023-04-09T11:37:26;95289.81;;;14.62;59.01
11124;BME280;5616;42.692;23.312;2023-04-09T11:39:53;95284.00;;;14.74;60.72
11124;BME280;5616;42.692;23.312;2023-04-09T11:42:23;95275.03;;;14.56;58.00
11124;BME280;5616;42.692;23.312;2023-04-09T11:44:51;95276.41;;;14.39;55.23
11124;BME280;5616;42.692;23.312;2023-04-09T11:47:18;95277.78;;;14.22;55.06
11124;BME280;5616;42.692;23.312;2023-04-09T11:49:46;95271.75;;;14.15;59.16
11124;BME280;5616;42.692;23.312;2023-04-09T11:52:13;95281.00;;;14.37;57.96
11124;BME280;5616;42.692;23.312;2023-04-09T11:54:41;95269.22;;;14.48;59.08
11124;BME280;5616;42.692;23.312;2023-04-09T11:57:08;95272.22;;;14.45;58.71
11124;BME280;5616;42.692;23.312;2023-04-09T11:59:38;95268.22;;;14.42;55.06
11124;BME280;5616;42.692;23.312;2023-04-09T12:02:06;95258.63;;;14.49;53.27
11124;BME280;5616;42.692;23.312;2023-04-09T12:04:33;95265.44;;;14.50;57.50
11124;BME280;5616;42.692;23.312;2023-04-09T12:06:59;95258.00;;;14.41;57.86
11124;BME280;5616;42.692;23.312;2023-04-09T12:09:26;95257.78;;;14.29;54.69
11124;BME280;5616;42.692;23.312;2023-04-09T12:11:53;95263.81;;;14.36;56.22
11124;BME280;5616;42.692;23.312;2023-04-09T12:14:21;95257.78;;;14.29;57.26
11124;BME280;5616;42.692;23.312;2023-04-09T12:16:51;95256.03;;;14.36;53.38
11124;BME280;5616;42.692;23.312;2023-04-09T12:19:18;95251.78;;;14.09;55.44
11124;BME280;5616;42.692;23.312;2023-04-09T12:21:47;95239.78;;;14.08;55.10
11124;BME280;5616;42.692;23.312;2023-04-09T12:24:14;95256.41;;;14.33;53.16
11124;BME280;5616;42.692;23.312;2023-04-09T12:26:41;95257.63;;;14.37;54.97
11124;BME280;5616;42.692;23.312;2023-04-09T12:29:08;95256.81;;;14.63;53.64
11124;BME280;5616;42.692;23.312;2023-04-09T12:31:35;95252.22;;;14.85;52.57
11124;BME280;5616;42.692;23.312;2023-04-09T12:34:03;95257.16;;;14.99;51.94
11124;BME280;5616;42.692;23.312;2023-04-09T12:36:30;95249.56;;;15.04;51.50
11124;BME280;5616;42.692;23.312;2023-04-09T12:38:56;95246.38;;;15.09;51.64
11124;BME280;5616;42.692;23.312;2023-04-09T12:41:23;95248.81;;;14.91;50.29
11124;BME280;5616;42.692;23.312;2023-04-09T12:43:50;95222.34;;;15.13;52.64
11124;BME280;5616;42.692;23.312;2023-04-09T12:46:18;95235.28;;;15.26;51.58
11124;BME280;5616;42.692;23.312;2023-04-09T12:48:45;95228.28;;;15.27;53.78
11124;BME280;5616;42.692;23.312;2023-04-09T12:51:13;95233.19;;;15.04;52.52
11124;BME280;5616;42.692;23.312;2023-04-09T12:53:40;95230.97;;;15.01;50.48
11124;BME280;5616;42.692;23.312;2023-04-09T12:56:07;95225.41;;;14.78;53.00
11124;BME280;5616;42.692;23.312;2023-04-09T12:58:34;95227.84;;;14.53;52.69
11124;BME280;5616;42.692;23.312;2023-04-09T13:01:02;95222.66;;;14.53;53.36
11124;BME280;5616;42.692;23.312;2023-04-09T13:03:29;95220.44;;;14.50;52.67
11124;BME280;5616;42.692;23.312;2023-04-09T13:05:56;95221.03;;;14.52;54.98
11124;BME280;5616;42.692;23.312;2023-04-09T13:08:24;95222.47;;;14.48;52.87
11124;BME280;5616;42.692;23.312;2023-04-09T13:10:51;95224.47;;;14.33;51.49
11124;BME280;5616;42.692;23.312;2023-04-09T13:13:18;95221.84;;;14.20;52.68
11124;BME280;5616;42.692;23.312;2023-04-09T13:15:45;95224.00;;;14.09;54.12
11124;BME280;5616;42.692;23.312;2023-04-09T13:18:12;95232.94;;;13.74;54.96
11124;BME280;5616;42.692;23.312;2023-04-09T13:20:39;95222.16;;;13.64;55.55